sensor_id;sensor_type;location;lat;lon;timestamp;pressure;altitude;pressure_sealevel;temperature
68027;BMP180;54819;48.030;14.710;2023-07-13T05:29:46;97467.80;;;19.90
68027;BMP180;54819;48.030;14.710;2023-07-13T05:32:13;97476.40;;;19.90
68027;BMP180;54819;48.030;14.710;2023-07-13T05:34:39;97481.00;;;20.00
68027;BMP180;54819;48.030;14.710;2023-07-13T05:37:07;97478.40;;;20.00
68027;BMP180;54819;48.030;14.710;2023-07-13T05:39:34;97473.80;;;20.10
68027;BMP180;54819;48.030;14.710;2023-07-13T05:42:02;97475.80;;;20.10
68027;BMP180;54819;48.030;14.710;2023-07-13T05:44:29;97475.20;;;20.20
68027;BMP180;54819;48.030;14.710;2023-07-13T05:46:55;97479.20;;;20.20
68027;BMP180;54819;48.030;14.710;2023-07-13T05:49:23;97486.60;;;20.30
68027;BMP180;54819;48.030;14.710;2023-07-13T05:51:50;97490.80;;;20.32
68027;BMP180;54819;48.030;14.710;2023-07-13T05:54:17;97491.80;;;20.40
68027;BMP180;54819;48.030;14.710;2023-07-13T05:56:43;97496.40;;;20.40
68027;BMP180;54819;48.030;14.710;2023-07-13T05:59:11;97495.00;;;20.46
68027;BMP180;54819;48.030;14.710;2023-07-13T06:01:37;97497.60;;;20.50
68027;BMP180;54819;48.030;14.710;2023-07-13T06:04:04;97494.20;;;20.50
68027;BMP180;54819;48.030;14.710;2023-07-13T06:06:31;97496.00;;;20.60
68027;BMP180;54819;48.030;14.710;2023-07-13T06:08:57;97490.40;;;20.60
68027;BMP180;54819;48.030;14.710;2023-07-13T06:11:26;97486.80;;;20.68
68027;BMP180;54819;48.030;14.710;2023-07-13T06:13:54;97482.00;;;20.70
68027;BMP180;54819;48.030;14.710;2023-07-13T06:16:20;97484.80;;;20.80
68027;BMP180;54819;48.030;14.710;2023-07-13T06:18:47;97491.40;;;20.80
68027;BMP180;54819;48.030;14.710;2023-07-13T06:21:19;97496.20;;;20.90
68027;BMP180;54819;48.030;14.710;2023-07-13T06:23:49;97504.80;;;21.00
68027;BMP180;54819;48.030;14.710;2023-07-13T06:26:18;97509.60;;;21.10
68027;BMP180;54819;48.030;14.710;2023-07-13T06:28:45;97517.20;;;21.20
68027;BMP180;54819;48.030;14.710;2023-07-13T06:31:14;97523.40;;;21.30
68027;BMP180;54819;48.030;14.710;2023-07-13T06:33:43;97527.60;;;21.44
68027;BMP180;54819;48.030;14.710;2023-07-13T06:36:10;97535.80;;;21.60
68027;BMP180;54819;48.030;14.710;2023-07-13T06:38:37;97540.00;;;21.74
68027;BMP180;54819;48.030;14.710;2023-07-13T06:41:07;97544.00;;;21.80
68027;BMP180;54819;48.030;14.710;2023-07-13T06:43:34;97549.20;;;21.90
68027;BMP180;54819;48.030;14.710;2023-07-13T06:46:01;97556.80;;;21.90
68027;BMP180;54819;48.030;14.710;2023-07-13T06:48:28;97561.20;;;21.90
68027;BMP180;54819;48.030;14.710;2023-07-13T06:50:55;97568.20;;;21.90
68027;BMP180;54819;48.030;14.710;2023-07-13T06:53:21;97568.40;;;21.90
68027;BMP180;54819;48.030;14.710;2023-07-13T06:55:49;97563.40;;;21.90
68027;BMP180;54819;48.030;14.710;2023-07-13T06:58:17;97561.80;;;21.90
68027;BMP180;54819;48.030;14.710;2023-07-13T07:00:44;97562.20;;;21.90
68027;BMP180;54819;48.030;14.710;2023-07-13T07:03:11;97569.60;;;21.90
68027;BMP180;54819;48.030;14.710;2023-07-13T07:05:38;97572.00;;;21.90
68027;BMP180;54819;48.030;14.710;2023-07-13T07:08:05;97584.60;;;21.86
68027;BMP180;54819;48.030;14.710;2023-07-13T07:10:32;97590.20;;;21.80
68027;BMP180;54819;48.030;14.710;2023-07-13T07:12:59;97587.20;;;21.70
68027;BMP180;54819;48.030;14.710;2023-07-13T07:15:26;97591.80;;;21.60
68027;BMP180;54819;48.030;14.710;2023-07-13T07:17:53;97591.00;;;21.60
68027;BMP180;54819;48.030;14.710;2023-07-13T07:20:20;97590.00;;;21.54
68027;BMP180;54819;48.030;14.710;2023-07-13T07:22:48;97591.80;;;21.52
68027;BMP180;54819;48.030;14.710;2023-07-13T07:25:15;97590.60;;;21.60
68027;BMP180;54819;48.030;14.710;2023-07-13T07:27:42;97590.60;;;21.70
68027;BMP180;54819;48.030;14.710;2023-07-13T07:30:12;97598.20;;;21.90
68027;BMP180;54819;48.030;14.710;2023-07-13T07:32:42;97593.00;;;22.00
68027;BMP180;54819;48.030;14.710;2023-07-13T07:35:12;97596.20;;;22.20
68027;BMP180;54819;48.030;14.710;2023-07-13T07:37:39;97593.60;;;22.30
68027;BMP180;54819;48.030;14.710;2023-07-13T07:40:08;97594.60;;;22.20
68027;BMP180;54819;48.030;14.710;2023-07-13T07:42:38;97602.20;;;22.20
68027;BMP180;54819;48.030;14.710;2023-07-13T07:45:05;97604.40;;;22.20
68027;BMP180;54819;48.030;14.710;2023-07-13T07:47:31;97602.40;;;22.28
68027;BMP180;54819;48.030;14.710;2023-07-13T07:49:58;97596.00;;;22.40
68027;BMP180;54819;48.030;14.710;2023-07-13T07:52:25;97593.60;;;22.56
68027;BMP180;54819;48.030;14.710;2023-07-13T07:54:52;97594.40;;;22.70
68027;BMP180;54819;48.030;14.710;2023-07-13T07:57:21;97601.80;;;22.90
68027;BMP180;54819;48.030;14.710;2023-07-13T07:59:51;97606.20;;;23.00
68027;BMP180;54819;48.030;14.710;2023-07-13T08:02:20;97605.40;;;22.98
68027;BMP180;54819;48.030;14.710;2023-07-13T08:04:50;97612.20;;;23.00
68027;BMP180;54819;48.030;14.710;2023-07-13T08:07:20;97620.40;;;23.00
68027;BMP180;54819;48.030;14.710;2023-07-13T08:09:46;97620.40;;;23.10
68027;BMP180;54819;48.030;14.710;2023-07-13T08:12:13;97618.20;;;23.20
68027;BMP180;54819;48.030;14.710;2023-07-13T08:14:43;97615.00;;;23.38
68027;BMP180;54819;48.030;14.710;2023-07-13T08:17:20;97617.20;;;23.62
68027;BMP180;54819;48.030;14.710;2023-07-13T08:19:46;97616.40;;;23.90
68027;BMP180;54819;48.030;14.710;2023-07-13T08:22:13;97608.00;;;24.28
68027;BMP180;54819;48.030;14.710;2023-07-13T08:24:40;97612.20;;;24.66
68027;BMP180;54819;48.030;14.710;2023-07-13T08:27:10;97618.80;;;25.00
68027;BMP180;54819;48.030;14.710;2023-07-13T08:29:38;97624.40;;;25.18
68027;BMP180;54819;48.030;14.710;2023-07-13T08:32:06;97624.00;;;25.30
68027;BMP180;54819;48.030;14.710;2023-07-13T08:34:36;97624.20;;;25.40
68027;BMP180;54819;48.030;14.710;2023-07-13T08:37:03;97621.80;;;25.50
68027;BMP180;54819;48.030;14.710;2023-07-13T08:39:31;97631.80;;;25.60
68027;BMP180;54819;48.030;14.710;2023-07-13T08:42:04;97635.40;;;25.80
68027;BMP180;54819;48.030;14.710;2023-07-13T08:44:40;97647.00;;;26.12
68027;BMP180;54819;48.030;14.710;2023-07-13T08:47:09;97652.40;;;26.22
68027;BMP180;54819;48.030;14.710;2023-07-13T08:49:38;97644.80;;;26.20
68027;BMP180;54819;48.030;14.710;2023-07-13T08:52:20;97644.60;;;26.30
68027;BMP180;54819;48.030;14.710;2023-07-13T08:54:50;97637.80;;;26.38
68027;BMP180;54819;48.030;14.710;2023-07-13T08:57:21;97634.80;;;26.40
68027;BMP180;54819;48.030;14.710;2023-07-13T08:59:49;97637.20;;;26.50
68027;BMP180;54819;48.030;14.710;2023-07-13T09:05:10;97642.20;;;26.76
68027;BMP180;54819;48.030;14.710;2023-07-13T09:10:21;97650.80;;;27.00
68027;BMP180;54819;48.030;14.710;2023-07-13T09:13:30;97651.80;;;27.00
68027;BMP180;54819;48.030;14.710;2023-07-13T09:15:53;97647.60;;;26.90
68027;BMP180;54819;48.030;14.710;2023-07-13T09:18:28;97651.60;;;26.90
68027;BMP180;54819;48.030;14.710;2023-07-13T09:21:03;97651.00;;;26.96
68027;BMP180;54819;48.030;14.710;2023-07-13T09:23:31;97656.20;;;27.20
68027;BMP180;54819;48.030;14.710;2023-07-13T09:26:03;97652.80;;;27.40
68027;BMP180;54819;48.030;14.710;2023-07-13T09:28:38;97653.60;;;27.70
68027;BMP180;54819;48.030;14.710;2023-07-13T09:33:48;97656.80;;;28.10
68027;BMP180;54819;48.030;14.710;2023-07-13T09:36:24;97660.20;;;28.10
68027;BMP180;54819;48.030;14.710;2023-07-13T09:41:46;97670.00;;;28.30
68027;BMP180;54819;48.030;14.710;2023-07-13T09:44:16;97672.80;;;28.30
68027;BMP180;54819;48.030;14.710;2023-07-13T09:46:47;97674.00;;;28.20
68027;BMP180;54819;48.030;14.710;2023-07-13T09:49:14;97675.00;;;28.10
68027;BMP180;54819;48.030;14.710;2023-07-13T09:51:41;97676.20;;;27.80
68027;BMP180;54819;48.030;14.710;2023-07-13T09:54:21;97681.40;;;27.50
68027;BMP180;54819;48.030;14.710;2023-07-13T09:56:57;97679.40;;;27.30
68027;BMP180;54819;48.030;14.710;2023-07-13T09:59:29;97674.20;;;27.10
68027;BMP180;54819;48.030;14.710;2023-07-13T10:01:57;97672.00;;;26.94
68027;BMP180;54819;48.030;14.710;2023-07-13T10:04:34;97679.40;;;26.76
68027;BMP180;54819;48.030;14.710;2023-07-13T10:07:12;97676.00;;;26.60
68027;BMP180;54819;48.030;14.710;2023-07-13T10:09:56;97675.00;;;26.60
68027;BMP180;54819;48.030;14.710;2023-07-13T10:12:24;97679.00;;;26.70
68027;BMP180;54819;48.030;14.710;2023-07-13T10:14:56;97675.20;;;26.90
68027;BMP180;54819;48.030;14.710;2023-07-13T10:17:43;97678.20;;;27.18
68027;BMP180;54819;48.030;14.710;2023-07-13T10:20:11;97673.80;;;27.30
68027;BMP180;54819;48.030;14.710;2023-07-13T10:25:39;97673.20;;;27.40
68027;BMP180;54819;48.030;14.710;2023-07-13T10:30:48;97672.80;;;27.72
68027;BMP180;54819;48.030;14.710;2023-07-13T10:33:16;97666.20;;;27.94
68027;BMP180;54819;48.030;14.710;2023-07-13T10:35:44;97660.80;;;28.10
68027;BMP180;54819;48.030;14.710;2023-07-13T10:38:15;97662.60;;;28.26
68027;BMP180;54819;48.030;14.710;2023-07-13T10:40:58;97661.40;;;28.56
68027;BMP180;54819;48.030;14.710;2023-07-13T10:43:42;97656.80;;;28.70
68027;BMP180;54819;48.030;14.710;2023-07-13T10:46:11;97658.80;;;28.80
68027;BMP180;54819;48.030;14.710;2023-07-13T10:48:40;97659.00;;;28.84
68027;BMP180;54819;48.030;14.710;2023-07-13T10:51:10;97664.80;;;28.90
68027;BMP180;54819;48.030;14.710;2023-07-13T10:53:39;97666.60;;;29.00
68027;BMP180;54819;48.030;14.710;2023-07-13T10:56:28;97665.40;;;29.10
68027;BMP180;54819;48.030;14.710;2023-07-13T10:59:23;97673.20;;;29.18
68027;BMP180;54819;48.030;14.710;2023-07-13T11:04:25;97676.60;;;29.30
68027;BMP180;54819;48.030;14.710;2023-07-13T11:06:59;97676.40;;;29.30
68027;BMP180;54819;48.030;14.710;2023-07-13T11:09:38;97681.00;;;29.36
68027;BMP180;54819;48.030;14.710;2023-07-13T11:15:02;97690.20;;;29.30
68027;BMP180;54819;48.030;14.710;2023-07-13T11:17:37;97685.20;;;29.30
68027;BMP180;54819;48.030;14.710;2023-07-13T11:35:36;97675.00;;;29.50
68027;BMP180;54819;48.030;14.710;2023-07-13T11:38:39;97673.80;;;29.50
68027;BMP180;54819;48.030;14.710;2023-07-13T11:44:23;97673.20;;;29.60
68027;BMP180;54819;48.030;14.710;2023-07-13T11:46:53;97667.80;;;29.70
68027;BMP180;54819;48.030;14.710;2023-07-13T11:49:24;97668.80;;;29.70
68027;BMP180;54819;48.030;14.710;2023-07-13T11:51:52;97661.60;;;29.76
68027;BMP180;54819;48.030;14.710;2023-07-13T11:54:30;97661.00;;;29.80
68027;BMP180;54819;48.030;14.710;2023-07-13T11:57:00;97657.20;;;29.80
68027;BMP180;54819;48.030;14.710;2023-07-13T11:59:29;97657.60;;;29.80
68027;BMP180;54819;48.030;14.710;2023-07-13T12:01:57;97656.80;;;29.80
68027;BMP180;54819;48.030;14.710;2023-07-13T12:04:31;97655.20;;;29.80
68027;BMP180;54819;48.030;14.710;2023-07-13T12:07:15;97658.20;;;29.80
68027;BMP180;54819;48.030;14.710;2023-07-13T12:09:43;97657.80;;;29.78
68027;BMP180;54819;48.030;14.710;2023-07-13T12:12:17;97650.20;;;29.80
68027;BMP180;54819;48.030;14.710;2023-07-13T12:14:45;97654.80;;;29.80
68027;BMP180;54819;48.030;14.710;2023-07-13T12:17:20;97657.40;;;29.80
68027;BMP180;54819;48.030;14.710;2023-07-13T12:19:48;97660.00;;;29.80
68027;BMP180;54819;48.030;14.710;2023-07-13T12:22:17;97662.20;;;29.80
68027;BMP180;54819;48.030;14.710;2023-07-13T12:24:45;97663.40;;;29.80
68027;BMP180;54819;48.030;14.710;2023-07-13T12:29:57;97667.20;;;29.84
68027;BMP180;54819;48.030;14.710;2023-07-13T12:32:25;97663.00;;;29.80
68027;BMP180;54819;48.030;14.710;2023-07-13T12:34:55;97656.80;;;29.86
68027;BMP180;54819;48.030;14.710;2023-07-13T12:37:23;97658.20;;;29.86
68027;BMP180;54819;48.030;14.710;2023-07-13T12:39:51;97659.60;;;29.80
68027;BMP180;54819;48.030;14.710;2023-07-13T12:42:21;97655.40;;;29.80
68027;BMP180;54819;48.030;14.710;2023-07-13T12:44:56;97650.40;;;29.70
68027;BMP180;54819;48.030;14.710;2023-07-13T12:47:24;97647.60;;;29.78
68027;BMP180;54819;48.030;14.710;2023-07-13T12:49:57;97643.80;;;29.90
68027;BMP180;54819;48.030;14.710;2023-07-13T12:52:32;97638.40;;;29.80
68027;BMP180;54819;48.030;14.710;2023-07-13T12:55:10;97639.40;;;29.80
68027;BMP180;54819;48.030;14.710;2023-07-13T12:57:53;97628.80;;;29.70
68027;BMP180;54819;48.030;14.710;2023-07-13T13:02:56;97620.00;;;29.70
68027;BMP180;54819;48.030;14.710;2023-07-13T13:05:41;97626.20;;;29.72
68027;BMP180;54819;48.030;14.710;2023-07-13T13:08:11;97619.40;;;29.72
68027;BMP180;54819;48.030;14.710;2023-07-13T13:10:38;97614.00;;;29.70
68027;BMP180;54819;48.030;14.710;2023-07-13T13:13:05;97616.80;;;29.70
68027;BMP180;54819;48.030;14.710;2023-07-13T13:15:32;97621.20;;;29.60
68027;BMP180;54819;48.030;14.710;2023-07-13T13:17:59;97623.60;;;29.50
68027;BMP180;54819;48.030;14.710;2023-07-13T13:20:26;97628.80;;;29.30
68027;BMP180;54819;48.030;14.710;2023-07-13T13:22:53;97628.40;;;29.14
68027;BMP180;54819;48.030;14.710;2023-07-13T13:25:21;97629.40;;;29.00
68027;BMP180;54819;48.030;14.710;2023-07-13T13:27:49;97632.20;;;28.90
68027;BMP180;54819;48.030;14.710;2023-07-13T13:30:17;97628.40;;;28.72
68027;BMP180;54819;48.030;14.710;2023-07-13T13:32:46;97630.60;;;28.60
68027;BMP180;54819;48.030;14.710;2023-07-13T13:35:18;97635.00;;;28.50
68027;BMP180;54819;48.030;14.710;2023-07-13T13:37:46;97641.00;;;28.40
68027;BMP180;54819;48.030;14.710;2023-07-13T13:40:16;97645.20;;;28.30
68027;BMP180;54819;48.030;14.710;2023-07-13T13:42:43;97645.20;;;28.10
68027;BMP180;54819;48.030;14.710;2023-07-13T13:45:10;97650.20;;;28.00
68027;BMP180;54819;48.030;14.710;2023-07-13T13:47:39;97657.80;;;27.90
68027;BMP180;54819;48.030;14.710;2023-07-13T13:50:19;97662.60;;;27.74
68027;BMP180;54819;48.030;14.710;2023-07-13T13:52:46;97660.20;;;27.60
68027;BMP180;54819;48.030;14.710;2023-07-13T13:55:17;97655.40;;;27.40
68027;BMP180;54819;48.030;14.710;2023-07-13T13:57:46;97658.00;;;27.20
68027;BMP180;54819;48.030;14.710;2023-07-13T14:00:14;97653.00;;;27.08
68027;BMP180;54819;48.030;14.710;2023-07-13T14:02:44;97652.00;;;26.90
68027;BMP180;54819;48.030;14.710;2023-07-13T14:05:15;97648.20;;;26.80
68027;BMP180;54819;48.030;14.710;2023-07-13T14:07:45;97650.80;;;26.60
68027;BMP180;54819;48.030;14.710;2023-07-13T14:10:16;97641.80;;;26.52
68027;BMP180;54819;48.030;14.710;2023-07-13T14:12:47;97638.00;;;26.50
68027;BMP180;54819;48.030;14.710;2023-07-13T14:15:20;97633.40;;;26.50
68027;BMP180;54819;48.030;14.710;2023-07-13T14:17:46;97632.60;;;26.50
68027;BMP180;54819;48.030;14.710;2023-07-13T14:20:18;97630.20;;;26.50
68027;BMP180;54819;48.030;14.710;2023-07-13T14:22:46;97631.80;;;26.60
68027;BMP180;54819;48.030;14.710;2023-07-13T14:25:14;97636.80;;;26.60
68027;BMP180;54819;48.030;14.710;2023-07-13T14:27:43;97637.00;;;26.70
68027;BMP180;54819;48.030;14.710;2023-07-13T14:30:18;97622.00;;;26.86
68027;BMP180;54819;48.030;14.710;2023-07-13T14:32:45;97622.00;;;27.02
68027;BMP180;54819;48.030;14.710;2023-07-13T14:35:13;97627.80;;;27.18
68027;BMP180;54819;48.030;14.710;2023-07-13T14:37:41;97624.20;;;27.30
68027;BMP180;54819;48.030;14.710;2023-07-13T14:40:24;97626.80;;;27.30
68027;BMP180;54819;48.030;14.710;2023-07-13T14:42:52;97616.20;;;27.38
68027;BMP180;54819;48.030;14.710;2023-07-13T14:45:20;97608.80;;;27.40
68027;BMP180;54819;48.030;14.710;2023-07-13T14:47:47;97605.40;;;27.42
68027;BMP180;54819;48.030;14.710;2023-07-13T14:52:42;97613.20;;;27.50
68027;BMP180;54819;48.030;14.710;2023-07-13T14:55:11;97611.00;;;27.50
68027;BMP180;54819;48.030;14.710;2023-07-13T14:57:39;97609.40;;;27.42
68027;BMP180;54819;48.030;14.710;2023-07-13T15:00:16;97613.20;;;27.30
68027;BMP180;54819;48.030;14.710;2023-07-13T15:02:51;97622.80;;;27.20
68027;BMP180;54819;48.030;14.710;2023-07-13T15:05:25;97618.00;;;27.20
68027;BMP180;54819;48.030;14.710;2023-07-13T15:07:53;97616.00;;;27.14
68027;BMP180;54819;48.030;14.710;2023-07-13T15:10:23;97614.80;;;27.10
68027;BMP180;54819;48.030;14.710;2023-07-13T15:12:52;97615.40;;;27.00
68027;BMP180;54819;48.030;14.710;2023-07-13T15:15:20;97616.20;;;27.00
68027;BMP180;54819;48.030;14.710;2023-07-13T15:17:47;97608.60;;;27.00
68027;BMP180;54819;48.030;14.710;2023-07-13T15:20:32;97609.60;;;27.00
68027;BMP180;54819;48.030;14.710;2023-07-13T15:23:01;97609.20;;;26.94
68027;BMP180;54819;48.030;14.710;2023-07-13T15:25:30;97611.80;;;26.90
68027;BMP180;54819;48.030;14.710;2023-07-13T15:27:57;97616.20;;;26.90
68027;BMP180;54819;48.030;14.710;2023-07-13T15:30:42;97619.80;;;26.90
68027;BMP180;54819;48.030;14.710;2023-07-13T15:33:25;97621.80;;;27.00
68027;BMP180;54819;48.030;14.710;2023-07-13T15:35:54;97617.80;;;27.10
68027;BMP180;54819;48.030;14.710;2023-07-13T15:38:25;97621.40;;;27.20
68027;BMP180;54819;48.030;14.710;2023-07-13T15:40:52;97621.60;;;27.14
68027;BMP180;54819;48.030;14.710;2023-07-13T15:43:20;97622.20;;;27.06
68027;BMP180;54819;48.030;14.710;2023-07-13T15:45:47;97629.00;;;26.92
68027;BMP180;54819;48.030;14.710;2023-07-13T15:48:25;97635.80;;;26.90
68027;BMP180;54819;48.030;14.710;2023-07-13T15:50:55;97637.80;;;26.80
68027;BMP180;54819;48.030;14.710;2023-07-13T15:53:32;97648.00;;;26.70
68027;BMP180;54819;48.030;14.710;2023-07-13T15:56:00;97654.80;;;26.60
68027;BMP180;54819;48.030;14.710;2023-07-13T15:58:28;97654.00;;;26.60
68027;BMP180;54819;48.030;14.710;2023-07-13T16:00:55;97657.80;;;26.50
68027;BMP180;54819;48.030;14.710;2023-07-13T16:03:23;97659.00;;;26.50
68027;BMP180;54819;48.030;14.710;2023-07-13T16:05:51;97667.20;;;26.50
68027;BMP180;54819;48.030;14.710;2023-07-13T16:08:27;97676.40;;;26.50
68027;BMP180;54819;48.030;14.710;2023-07-13T16:10:58;97677.60;;;26.50
68027;BMP180;54819;48.030;14.710;2023-07-13T16:13:25;97671.20;;;26.50
68027;BMP180;54819;48.030;14.710;2023-07-13T16:15:53;97670.80;;;26.50
68027;BMP180;54819;48.030;14.710;2023-07-13T16:18:23;97670.20;;;26.50
68027;BMP180;54819;48.030;14.710;2023-07-13T16:20:50;97668.80;;;26.50
68027;BMP180;54819;48.030;14.710;2023-07-13T16:23:20;97666.60;;;26.40
68027;BMP180;54819;48.030;14.710;2023-07-13T16:25:48;97666.00;;;26.40
68027;BMP180;54819;48.030;14.710;2023-07-13T16:28:15;97667.60;;;26.40
68027;BMP180;54819;48.030;14.710;2023-07-13T16:30:42;97671.60;;;26.30
68027;BMP180;54819;48.030;14.710;2023-07-13T16:33:08;97671.20;;;26.30
68027;BMP180;54819;48.030;14.710;2023-07-13T16:35:38;97669.20;;;26.20
68027;BMP180;54819;48.030;14.710;2023-07-13T16:38:15;97672.60;;;26.10
68027;BMP180;54819;48.030;14.710;2023-07-13T16:40:42;97672.60;;;26.10
68027;BMP180;54819;48.030;14.710;2023-07-13T16:43:12;97679.40;;;26.00
68027;BMP180;54819;48.030;14.710;2023-07-13T16:45:40;97676.60;;;25.94
68027;BMP180;54819;48.030;14.710;2023-07-13T16:48:15;97674.00;;;25.90
68027;BMP180;54819;48.030;14.710;2023-07-13T16:50:44;97673.40;;;25.80
68027;BMP180;54819;48.030;14.710;2023-07-13T16:53:25;97676.20;;;25.80
68027;BMP180;54819;48.030;14.710;2023-07-13T16:55:52;97675.80;;;25.70
68027;BMP180;54819;48.030;14.710;2023-07-13T16:58:34;97675.60;;;25.60
68027;BMP180;54819;48.030;14.710;2023-07-13T17:01:01;97675.60;;;25.52
68027;BMP180;54819;48.030;14.710;2023-07-13T17:03:30;97677.40;;;25.50
68027;BMP180;54819;48.030;14.710;2023-07-13T17:06:01;97677.60;;;25.40
68027;BMP180;54819;48.030;14.710;2023-07-13T17:08:30;97675.60;;;25.34
68027;BMP180;54819;48.030;14.710;2023-07-13T17:11:00;97675.20;;;25.30
68027;BMP180;54819;48.030;14.710;2023-07-13T17:13:28;97670.80;;;25.20
68027;BMP180;54819;48.030;14.710;2023-07-13T17:15:56;97667.60;;;25.20
68027;BMP180;54819;48.030;14.710;2023-07-13T17:18:26;97663.60;;;25.10
68027;BMP180;54819;48.030;14.710;2023-07-13T17:20:54;97664.80;;;25.10
68027;BMP180;54819;48.030;14.710;2023-07-13T17:23:25;97662.20;;;25.00
68027;BMP180;54819;48.030;14.710;2023-07-13T17:25:53;97657.40;;;25.00
68027;BMP180;54819;48.030;14.710;2023-07-13T17:28:22;97662.40;;;25.02
68027;BMP180;54819;48.030;14.710;2023-07-13T17:30:53;97663.60;;;25.00
68027;BMP180;54819;48.030;14.710;2023-07-13T17:36:00;97666.00;;;25.00
68027;BMP180;54819;48.030;14.710;2023-07-13T17:38:44;97664.80;;;25.00
68027;BMP180;54819;48.030;14.710;2023-07-13T17:41:13;97666.80;;;24.90
68027;BMP180;54819;48.030;14.710;2023-07-13T17:43:44;97672.60;;;24.90
68027;BMP180;54819;48.030;14.710;2023-07-13T17:46:37;97673.60;;;24.80
68027;BMP180;54819;48.030;14.710;2023-07-13T17:49:05;97679.20;;;24.80
68027;BMP180;54819;48.030;14.710;2023-07-13T17:51:35;97682.00;;;24.70
68027;BMP180;54819;48.030;14.710;2023-07-13T17:54:12;97679.60;;;24.70
68027;BMP180;54819;48.030;14.710;2023-07-13T17:56:39;97680.80;;;24.60
68027;BMP180;54819;48.030;14.710;2023-07-13T17:59:08;97685.40;;;24.60
68027;BMP180;54819;48.030;14.710;2023-07-13T18:01:35;97690.40;;;24.54
68027;BMP180;54819;48.030;14.710;2023-07-13T18:04:13;97691.80;;;24.50
68027;BMP180;54819;48.030;14.710;2023-07-13T18:06:42;97690.20;;;24.40
68027;BMP180;54819;48.030;14.710;2023-07-13T18:09:25;97697.00;;;24.38
68027;BMP180;54819;48.030;14.710;2023-07-13T18:11:53;97709.20;;;24.30
68027;BMP180;54819;48.030;14.710;2023-07-13T18:14:21;97709.80;;;24.20
68027;BMP180;54819;48.030;14.710;2023-07-13T18:16:56;97704.00;;;24.20
68027;BMP180;54819;48.030;14.710;2023-07-13T18:19:32;97705.00;;;24.10
68027;BMP180;54819;48.030;14.710;2023-07-13T18:22:00;97707.60;;;24.10
68027;BMP180;54819;48.030;14.710;2023-07-13T18:24:29;97706.20;;;24.00
68027;BMP180;54819;48.030;14.710;2023-07-13T18:26:56;97709.20;;;24.00
68027;BMP180;54819;48.030;14.710;2023-07-13T18:29:23;97707.60;;;23.90
68027;BMP180;54819;48.030;14.710;2023-07-13T18:31:50;97706.40;;;23.82
68027;BMP180;54819;48.030;14.710;2023-07-13T18:34:17;97705.40;;;23.80
68027;BMP180;54819;48.030;14.710;2023-07-13T18:36:44;97708.20;;;23.70
68027;BMP180;54819;48.030;14.710;2023-07-13T18:39:13;97708.20;;;23.64
68027;BMP180;54819;48.030;14.710;2023-07-13T18:41:42;97710.20;;;23.60
68027;BMP180;54819;48.030;14.710;2023-07-13T18:44:12;97708.60;;;23.50
68027;BMP180;54819;48.030;14.710;2023-07-13T18:46:39;97709.20;;;23.40
68027;BMP180;54819;48.030;14.710;2023-07-13T18:49:08;97709.60;;;23.40
68027;BMP180;54819;48.030;14.710;2023-07-13T18:51:35;97712.60;;;23.30
68027;BMP180;54819;48.030;14.710;2023-07-13T18:54:02;97710.20;;;23.20
68027;BMP180;54819;48.030;14.710;2023-07-13T18:56:29;97708.00;;;23.10
68027;BMP180;54819;48.030;14.710;2023-07-13T18:58:58;97704.40;;;23.10
68027;BMP180;54819;48.030;14.710;2023-07-13T19:01:32;97713.00;;;23.00
68027;BMP180;54819;48.030;14.710;2023-07-13T19:04:25;97708.20;;;22.90
68027;BMP180;54819;48.030;14.710;2023-07-13T19:06:52;97707.40;;;22.90
68027;BMP180;54819;48.030;14.710;2023-07-13T19:09:19;97715.80;;;22.80
68027;BMP180;54819;48.030;14.710;2023-07-13T19:11:45;97724.20;;;22.70
68027;BMP180;54819;48.030;14.710;2023-07-13T19:14:16;97727.40;;;22.60
68027;BMP180;54819;48.030;14.710;2023-07-13T19:16:44;97729.80;;;22.50
68027;BMP180;54819;48.030;14.710;2023-07-13T19:19:13;97731.80;;;22.40
68027;BMP180;54819;48.030;14.710;2023-07-13T19:21:41;97726.80;;;22.30
68027;BMP180;54819;48.030;14.710;2023-07-13T19:24:14;97727.40;;;22.24
68027;BMP180;54819;48.030;14.710;2023-07-13T19:26:42;97729.40;;;22.20
68027;BMP180;54819;48.030;14.710;2023-07-13T19:29:12;97730.80;;;22.10
68027;BMP180;54819;48.030;14.710;2023-07-13T19:31:40;97733.80;;;22.00
68027;BMP180;54819;48.030;14.710;2023-07-13T19:36:34;97734.40;;;21.88
68027;BMP180;54819;48.030;14.710;2023-07-13T19:39:03;97738.40;;;21.80
68027;BMP180;54819;48.030;14.710;2023-07-13T19:41:33;97744.20;;;21.70
68027;BMP180;54819;48.030;14.710;2023-07-13T19:44:01;97750.40;;;21.62
68027;BMP180;54819;48.030;14.710;2023-07-13T19:46:35;97749.40;;;21.60
68027;BMP180;54819;48.030;14.710;2023-07-13T19:49:04;97750.40;;;21.50
68027;BMP180;54819;48.030;14.710;2023-07-13T19:51:33;97755.20;;;21.42
68027;BMP180;54819;48.030;14.710;2023-07-13T19:54:13;97758.80;;;21.40
68027;BMP180;54819;48.030;14.710;2023-07-13T19:56:41;97769.40;;;21.30
68027;BMP180;54819;48.030;14.710;2023-07-13T19:59:29;97767.60;;;21.22
68027;BMP180;54819;48.030;14.710;2023-07-13T20:01:57;97772.00;;;21.20
68027;BMP180;54819;48.030;14.710;2023-07-13T20:04:26;97774.00;;;21.10
68027;BMP180;54819;48.030;14.710;2023-07-13T20:06:54;97776.20;;;21.10
68027;BMP180;54819;48.030;14.710;2023-07-13T20:09:22;97777.00;;;21.00
68027;BMP180;54819;48.030;14.710;2023-07-13T20:12:12;97780.40;;;20.90
68027;BMP180;54819;48.030;14.710;2023-07-13T20:14:41;97785.40;;;20.90
68027;BMP180;54819;48.030;14.710;2023-07-13T20:17:28;97792.80;;;20.80
68027;BMP180;54819;48.030;14.710;2023-07-13T20:19:57;97788.60;;;20.74
68027;BMP180;54819;48.030;14.710;2023-07-13T20:22:27;97793.40;;;20.70
68027;BMP180;54819;48.030;14.710;2023-07-13T20:24:54;97795.20;;;20.64
68027;BMP180;54819;48.030;14.710;2023-07-13T20:27:21;97801.60;;;20.60
68027;BMP180;54819;48.030;14.710;2023-07-13T20:29:47;97804.60;;;20.50
68027;BMP180;54819;48.030;14.710;2023-07-13T20:32:15;97806.20;;;20.50
68027;BMP180;54819;48.030;14.710;2023-07-13T20:34:43;97804.40;;;20.40
68027;BMP180;54819;48.030;14.710;2023-07-13T20:37:30;97805.80;;;20.34